createdAt,value
2023-05-06T00:02:08.227Z,101369.38
2023-05-06T00:04:34.875Z,101356.44
2023-05-06T00:07:01.684Z,101358.00
2023-05-06T00:09:28.158Z,101363.97
2023-05-06T00:11:54.755Z,101358.66
2023-05-06T00:14:21.343Z,101330.13
2023-05-06T00:16:48.131Z,101342.06
2023-05-06T00:19:14.648Z,101354.25
2023-05-06T00:21:41.108Z,101354.25
2023-05-06T00:24:07.654Z,101354.34
2023-05-06T00:26:34.196Z,101354.34
2023-05-06T00:29:00.703Z,101351.78
2023-05-06T00:31:27.316Z,101355.25
2023-05-06T00:33:53.811Z,101353.53
2023-05-06T00:36:20.596Z,101349.25
2023-05-06T00:38:47.035Z,101339.81
2023-05-06T00:41:13.518Z,101333.03
2023-05-06T00:43:40.027Z,101352.09
2023-05-06T00:46:09.519Z,101337.47
2023-05-06T00:48:36.523Z,101337.47
2023-05-06T00:51:03.260Z,101340.97
2023-05-06T00:53:30.358Z,101338.41
2023-05-06T00:55:57.528Z,101340.19
2023-05-06T00:58:24.077Z,101323.03
2023-05-06T01:00:52.211Z,101332.50
2023-05-06T01:03:18.990Z,101317.94
2023-05-06T01:05:59.764Z,101334.22
2023-05-06T01:08:37.400Z,101334.19
2023-05-06T01:11:16.042Z,101330.56
2023-05-06T01:13:48.555Z,101323.47
2023-05-06T01:16:17.936Z,101319.91
2023-05-06T01:18:44.800Z,101321.66
2023-05-06T01:21:12.870Z,101320.66
2023-05-06T01:24:00.008Z,101323.06
2023-05-06T01:26:27.361Z,101318.66
2023-05-06T01:28:54.909Z,101311.59
2023-05-06T01:31:33.447Z,101310.66
2023-05-06T01:34:18.157Z,101309.91
2023-05-06T01:36:53.722Z,101314.19
2023-05-06T01:39:29.956Z,101312.50
2023-05-06T01:41:59.562Z,101319.41
2023-05-06T01:44:29.118Z,101297.06
2023-05-06T01:46:56.388Z,101305.56
2023-05-06T01:49:26.076Z,101314.22
2023-05-06T01:51:53.466Z,101309.94
2023-05-06T01:54:19.956Z,101316.13
2023-05-06T01:56:46.687Z,101314.31
2023-05-06T01:59:13.182Z,101309.19
2023-05-06T02:01:39.774Z,101303.16
2023-05-06T02:04:06.309Z,101305.81
2023-05-06T02:06:33.183Z,101305.81
2023-05-06T02:08:59.664Z,101300.63
2023-05-06T02:11:26.269Z,101299.81
2023-05-06T02:13:52.982Z,101306.78
2023-05-06T02:16:20.214Z,101293.81
2023-05-06T02:18:46.702Z,101300.78
2023-05-06T02:21:13.273Z,101291.44
2023-05-06T02:23:39.951Z,101298.28
2023-05-06T02:26:06.435Z,101285.44
2023-05-06T02:28:32.966Z,101300.94
2023-05-06T02:30:59.488Z,101299.28
2023-05-06T02:33:26.159Z,101292.56
2023-05-06T02:35:52.719Z,101302.84
2023-05-06T02:38:19.654Z,101296.75
2023-05-06T02:40:46.142Z,101295.16
2023-05-06T02:43:12.735Z,101304.78
2023-05-06T02:45:39.322Z,101285.81
2023-05-06T02:48:06.295Z,101298.84
2023-05-06T02:50:35.401Z,101298.84
2023-05-06T02:53:01.875Z,101296.31
2023-05-06T02:55:28.450Z,101292.03
2023-05-06T02:57:54.937Z,101254.97
2023-05-06T03:00:21.644Z,101280.81
2023-05-06T03:02:48.265Z,101291.22
2023-05-06T03:05:14.790Z,101287.78
2023-05-06T03:07:41.372Z,101286.94
2023-05-06T03:10:08.238Z,101273.28
2023-05-06T03:12:34.873Z,101290.50
2023-05-06T03:15:01.581Z,101274.09
2023-05-06T03:17:28.129Z,101277.59
2023-05-06T03:19:54.659Z,101282.88
2023-05-06T03:22:21.112Z,101280.34
2023-05-06T03:24:47.584Z,101275.13
2023-05-06T03:27:14.191Z,101274.41
2023-05-06T03:29:40.780Z,101271.75
2023-05-06T03:32:07.272Z,101274.41
2023-05-06T03:34:33.931Z,101266.72
2023-05-06T03:37:00.492Z,101259.06
2023-05-06T03:39:26.970Z,101285.03
2023-05-06T03:41:53.514Z,101274.63
2023-05-06T03:44:20.001Z,101257.34
2023-05-06T03:46:46.517Z,101271.22
2023-05-06T03:49:13.101Z,101271.22
2023-05-06T03:51:39.682Z,101270.41
2023-05-06T03:54:06.264Z,101252.28
2023-05-06T03:56:32.841Z,101263.47
2023-05-06T03:58:59.364Z,101260.81
2023-05-06T04:01:26.170Z,101269.56
2023-05-06T04:03:54.402Z,101241.97
2023-05-06T04:06:20.988Z,101265.28
2023-05-06T04:08:47.581Z,101254.91
2023-05-06T04:11:14.395Z,101267.94
2023-05-06T04:13:40.905Z,101264.47
2023-05-06T04:16:07.662Z,101255.06
2023-05-06T04:18:34.343Z,101247.28
2023-05-06T04:21:01.012Z,101268.06
2023-05-06T04:23:27.625Z,101264.53
2023-05-06T04:25:54.136Z,101267.97
2023-05-06T04:28:20.824Z,101267.06
2023-05-06T04:30:47.399Z,101268.81
2023-05-06T04:33:13.950Z,101263.66
2023-05-06T04:35:41.044Z,101245.69
2023-05-06T04:38:07.665Z,101259.31
2023-05-06T04:40:36.501Z,101276.66
2023-05-06T04:43:03.087Z,101273.19
2023-05-06T04:45:29.954Z,101275.81
2023-05-06T04:47:56.656Z,101255.94
2023-05-06T04:50:23.251Z,101262.75
2023-05-06T04:52:49.804Z,101266.22
2023-05-06T04:55:16.395Z,101274.88
2023-05-06T04:57:42.881Z,101271.34
2023-05-06T05:00:10.669Z,101272.16
2023-05-06T05:02:37.702Z,101273.03
2023-05-06T05:05:05.119Z,101277.28
2023-05-06T05:07:34.071Z,101262.56
2023-05-06T05:10:00.664Z,101263.34
2023-05-06T05:12:27.104Z,101274.47
2023-05-06T05:14:53.671Z,101270.97
2023-05-06T05:17:20.199Z,101253.72
2023-05-06T05:19:49.220Z,101270.75
2023-05-06T05:22:15.925Z,101277.59
2023-05-06T05:24:42.421Z,101278.38
2023-05-06T05:27:09.087Z,101265.44
2023-05-06T05:29:35.640Z,101293.88
2023-05-06T05:32:02.204Z,101284.22
2023-05-06T05:34:29.435Z,101278.38
2023-05-06T05:36:57.628Z,101264.44
2023-05-06T05:39:24.202Z,101244.41
2023-05-06T05:41:50.730Z,101295.09
2023-05-06T05:44:17.280Z,101289.75
2023-05-06T05:46:43.988Z,101303.53
2023-05-06T05:49:10.606Z,101295.56
2023-05-06T05:51:37.160Z,101280.00
2023-05-06T05:54:03.750Z,101295.25
2023-05-06T05:56:30.320Z,101290.03
2023-05-06T05:58:56.850Z,101291.53
2023-05-06T06:01:23.444Z,101290.38
2023-05-06T06:03:50.267Z,101304.88
2023-05-06T06:06:20.327Z,101287.50
2023-05-06T06:08:46.900Z,101290.97
2023-05-06T06:11:13.395Z,101287.13
2023-05-06T06:13:40.142Z,101295.63
2023-05-06T06:16:09.861Z,101283.50
2023-05-06T06:18:36.466Z,101311.06
2023-05-06T06:21:03.095Z,101291.84
2023-05-06T06:23:40.383Z,101274.56
2023-05-06T06:26:06.936Z,101302.09
2023-05-06T06:28:35.790Z,101284.03
2023-05-06T06:31:02.403Z,101259.91
2023-05-06T06:33:28.889Z,101265.00
2023-05-06T06:35:55.606Z,101286.25
2023-05-06T06:38:22.758Z,101290.59
2023-05-06T06:40:49.356Z,101298.13
2023-05-06T06:43:15.871Z,101286.91
2023-05-06T06:45:50.128Z,101292.69
2023-05-06T06:48:16.908Z,101301.97
2023-05-06T06:50:45.717Z,101278.50
2023-05-06T06:53:14.315Z,101288.50
2023-05-06T06:55:44.883Z,101307.28
2023-05-06T06:58:11.583Z,101296.69
2023-05-06T07:01:05.113Z,101281.91
2023-05-06T07:03:41.217Z,101279.91
2023-05-06T07:06:18.553Z,101282.28
2023-05-06T07:09:03.770Z,101307.94
2023-05-06T07:11:47.796Z,101272.38
2023-05-06T07:14:14.369Z,101303.63
2023-05-06T07:16:41.004Z,101290.72
2023-05-06T07:19:07.828Z,101305.16
2023-05-06T07:21:34.429Z,101304.94
2023-05-06T07:24:01.139Z,101315.22
2023-05-06T07:26:27.609Z,101319.16
2023-05-06T07:28:54.212Z,101307.75
2023-05-06T07:31:23.925Z,101305.84
2023-05-06T07:33:58.949Z,101289.53
2023-05-06T07:36:26.970Z,101312.59
2023-05-06T07:38:56.366Z,101305.75
2023-05-06T07:41:25.209Z,101306.56
2023-05-06T07:43:51.737Z,101291.78
2023-05-06T07:46:19.958Z,101307.03
2023-05-06T07:48:46.857Z,101303.72
2023-05-06T07:51:14.557Z,101313.69
2023-05-06T07:53:46.354Z,101313.78
2023-05-06T07:56:12.907Z,101318.84
2023-05-06T07:58:39.633Z,101333.50
2023-05-06T08:01:06.343Z,101318.00
2023-05-06T08:03:34.509Z,101329.56
2023-05-06T08:06:01.362Z,101336.63
2023-05-06T08:08:28.126Z,101338.56
2023-05-06T08:10:58.922Z,101336.09
2023-05-06T08:13:26.080Z,101329.19
2023-05-06T08:15:54.327Z,101309.38
2023-05-06T08:18:23.567Z,101329.78
2023-05-06T08:20:53.103Z,101328.69
2023-05-06T08:23:20.806Z,101339.09
2023-05-06T08:25:47.369Z,101305.53
2023-05-06T08:28:13.834Z,101311.53
2023-05-06T08:30:40.431Z,101343.28
2023-05-06T08:33:06.988Z,101317.44
2023-05-06T08:35:33.740Z,101325.81
2023-05-06T08:38:00.241Z,101325.69
2023-05-06T08:40:27.935Z,101331.00
2023-05-06T08:42:57.584Z,101323.25
2023-05-06T08:45:29.536Z,101306.34
2023-05-06T08:47:59.070Z,101300.28
2023-05-06T08:50:28.197Z,101331.16
2023-05-06T08:52:54.694Z,101325.03
2023-05-06T08:55:24.241Z,101318.06
2023-05-06T08:57:53.129Z,101324.34
2023-05-06T09:00:19.719Z,101314.09
2023-05-06T09:02:46.336Z,101324.53
2023-05-06T09:05:13.078Z,101320.38
2023-05-06T09:07:39.712Z,101323.72
2023-05-06T09:10:17.825Z,101305.63
2023-05-06T09:12:44.418Z,101312.50
2023-05-06T09:15:13.178Z,101321.19
2023-05-06T09:17:40.002Z,101304.78
2023-05-06T09:20:09.436Z,101306.41
2023-05-06T09:22:39.713Z,101308.69
2023-05-06T09:25:07.196Z,101305.41
2023-05-06T09:27:36.690Z,101314.94
2023-05-06T09:30:13.857Z,101311.59
2023-05-06T09:32:41.720Z,101307.25
2023-05-06T09:35:10.686Z,101307.03
2023-05-06T09:37:37.476Z,101309.69
2023-05-06T09:40:04.276Z,101308.97
2023-05-06T09:42:31.386Z,101298.78
2023-05-06T09:45:07.504Z,101315.28
2023-05-06T09:47:38.188Z,101298.97
2023-05-06T09:50:05.328Z,101303.44
2023-05-06T09:52:31.938Z,101297.50
2023-05-06T09:54:59.346Z,101307.97
2023-05-06T09:57:26.213Z,101302.66
2023-05-06T09:59:54.213Z,101292.22
2023-05-06T10:02:23.132Z,101301.59
2023-05-06T10:04:50.564Z,101304.25
2023-05-06T10:07:22.565Z,101298.25
2023-05-06T10:09:50.039Z,101305.94
2023-05-06T10:12:16.899Z,101293.91
2023-05-06T10:14:43.368Z,101300.88
2023-05-06T10:17:11.512Z,101288.75
2023-05-06T10:19:45.913Z,101286.97
2023-05-06T10:22:27.111Z,101314.31
2023-05-06T10:25:03.477Z,101302.91
2023-05-06T10:27:33.020Z,101292.69
2023-05-06T10:30:00.349Z,101288.03
2023-05-06T10:32:32.067Z,101282.28
2023-05-06T10:35:10.258Z,101291.78
2023-05-06T10:37:38.882Z,101279.88
2023-05-06T10:40:06.110Z,101290.59
2023-05-06T10:42:35.753Z,101292.81
2023-05-06T10:45:04.743Z,101286.84
2023-05-06T10:47:56.287Z,101288.81
2023-05-06T10:50:27.152Z,101287.31
2023-05-06T10:52:59.004Z,101281.41
2023-05-06T10:55:30.742Z,101287.63
2023-05-06T10:58:01.576Z,101292.09
2023-05-06T11:00:32.812Z,101282.69
2023-05-06T11:03:23.654Z,101286.97
2023-05-06T11:05:51.924Z,101286.97
2023-05-06T11:08:24.387Z,101288.69
2023-05-06T11:10:51.771Z,101286.06
2023-05-06T11:13:19.915Z,101265.13
2023-05-06T11:15:46.565Z,101274.66
2023-05-06T11:18:25.540Z,101274.44
2023-05-06T11:21:12.776Z,101285.81
2023-05-06T11:23:42.639Z,101282.31
2023-05-06T11:26:10.381Z,101269.31
2023-05-06T11:28:37.525Z,101286.47
2023-05-06T11:31:04.470Z,101287.22
2023-05-06T11:33:35.812Z,101280.91
2023-05-06T11:36:06.565Z,101271.16
2023-05-06T11:38:45.880Z,101280.63
2023-05-06T11:41:13.269Z,101267.47
2023-05-06T11:43:40.157Z,101254.50
2023-05-06T11:46:06.979Z,101261.19
2023-05-06T11:48:33.533Z,101251.69
2023-05-06T11:51:00.416Z,101252.53
2023-05-06T11:53:26.977Z,101266.25
2023-05-06T11:55:53.997Z,101262.72
2023-05-06T11:58:24.684Z,101266.16
2023-05-06T12:01:01.064Z,101248.06
2023-05-06T12:03:29.584Z,101250.19
2023-05-06T12:05:56.812Z,101249.00
2023-05-06T12:08:28.332Z,101250.69
2023-05-06T12:11:00.615Z,101254.94
2023-05-06T12:13:27.847Z,101255.91
2023-05-06T12:15:55.888Z,101254.31
2023-05-06T12:18:23.924Z,101260.50
2023-05-06T12:20:53.271Z,101252.00
2023-05-06T12:23:21.697Z,101255.75
2023-05-06T12:26:04.042Z,101265.31
2023-05-06T12:28:32.144Z,101262.81
2023-05-06T12:30:58.672Z,101262.94
2023-05-06T12:33:25.268Z,101270.84
2023-05-06T12:35:52.629Z,101264.66
2023-05-06T12:38:19.209Z,101266.25
2023-05-06T12:40:53.300Z,101264.44
2023-05-06T12:43:31.430Z,101266.91
2023-05-06T12:46:08.949Z,101263.25
2023-05-06T12:48:35.583Z,101255.44
2023-05-06T12:51:18.806Z,101261.44
2023-05-06T12:53:46.012Z,101245.94
2023-05-06T12:56:12.794Z,101257.88
2023-05-06T12:58:39.778Z,101264.81
2023-05-06T13:01:07.644Z,101261.56
2023-05-06T13:03:38.183Z,101267.88
2023-05-06T13:06:05.425Z,101263.59
2023-05-06T13:08:31.920Z,101266.25
2023-05-06T13:10:59.676Z,101261.84
2023-05-06T13:13:26.261Z,101277.41
2023-05-06T13:15:53.709Z,101259.28
2023-05-06T13:18:20.434Z,101265.56
2023-05-06T13:20:47.064Z,101265.66
2023-05-06T13:23:13.535Z,101273.31
2023-05-06T13:25:48.263Z,101268.41
2023-05-06T13:28:22.706Z,101283.06
2023-05-06T13:30:49.240Z,101274.50
2023-05-06T13:33:16.061Z,101280.00
2023-05-06T13:35:42.511Z,101276.63
2023-05-06T13:38:08.998Z,101267.28
2023-05-06T13:40:35.556Z,101263.63
2023-05-06T13:43:02.025Z,101269.81
2023-05-06T13:45:28.611Z,101255.22
2023-05-06T13:47:55.166Z,101265.47
2023-05-06T13:50:22.027Z,101266.31
2023-05-06T13:52:48.768Z,101262.91
2023-05-06T13:55:16.862Z,101262.75
2023-05-06T13:57:44.306Z,101251.44
2023-05-06T14:00:13.166Z,101257.44
2023-05-06T14:02:39.773Z,101258.19
2023-05-06T14:05:06.935Z,101252.09
2023-05-06T14:07:33.487Z,101251.41
2023-05-06T14:10:00.115Z,101247.88
2023-05-06T14:12:26.631Z,101238.91
2023-05-06T14:14:53.239Z,101240.66
2023-05-06T14:17:20.106Z,101244.28
2023-05-06T14:19:46.596Z,101242.56
2023-05-06T14:22:13.134Z,101237.31
2023-05-06T14:24:39.631Z,101227.81
2023-05-06T14:27:06.149Z,101235.88
2023-05-06T14:29:32.667Z,101231.56
2023-05-06T14:31:59.345Z,101235.03
2023-05-06T14:34:27.030Z,101231.72
2023-05-06T14:36:53.501Z,101220.25
2023-05-06T14:39:19.980Z,101218.56
2023-05-06T14:41:46.959Z,101221.97
2023-05-06T14:44:13.502Z,101204.72
2023-05-06T14:46:40.063Z,101219.47
2023-05-06T14:49:06.731Z,101211.59
2023-05-06T14:51:34.374Z,101218.56
2023-05-06T14:54:01.300Z,101216.91
2023-05-06T14:56:27.782Z,101205.72
2023-05-06T14:58:54.311Z,101196.34
2023-05-06T15:01:21.083Z,101209.38
2023-05-06T15:03:47.671Z,101214.63
2023-05-06T15:06:14.235Z,101201.59
2023-05-06T15:08:40.934Z,101207.47
2023-05-06T15:11:07.968Z,101209.16
2023-05-06T15:13:34.504Z,101206.44
2023-05-06T15:16:01.044Z,101203.81
2023-05-06T15:18:27.562Z,101214.16
2023-05-06T15:20:55.067Z,101213.19
2023-05-06T15:23:22.346Z,101194.13
2023-05-06T15:25:48.789Z,101199.31
2023-05-06T15:28:17.645Z,101206.22
2023-05-06T15:30:44.195Z,101194.06
2023-05-06T15:33:10.651Z,101204.31
2023-05-06T15:35:37.077Z,101200.78
2023-05-06T15:38:04.321Z,101199.16
2023-05-06T15:40:31.155Z,101195.53
2023-05-06T15:42:58.724Z,101204.25
2023-05-06T15:45:25.688Z,101200.78
2023-05-06T15:47:52.288Z,101204.31
2023-05-06T15:50:32.050Z,101208.53
2023-05-06T15:52:59.739Z,101204.97
2023-05-06T15:55:26.617Z,101201.38
2023-05-06T15:57:54.792Z,101201.16
2023-05-06T16:00:22.348Z,101205.41
2023-05-06T16:02:49.141Z,101214.19
2023-05-06T16:05:16.011Z,101206.31
2023-05-06T16:07:42.575Z,101196.81
2023-05-06T16:10:09.330Z,101198.84
2023-05-06T16:12:36.091Z,101194.63
2023-05-06T16:15:03.480Z,101194.63
2023-05-06T16:17:30.330Z,101202.41
2023-05-06T16:19:56.860Z,101195.41
2023-05-06T16:22:23.361Z,101198.66
2023-05-06T16:24:49.816Z,101195.00
2023-05-06T16:27:16.408Z,101200.88
2023-05-06T16:29:42.870Z,101199.94
2023-05-06T16:32:09.340Z,101193.06
2023-05-06T16:34:39.004Z,101201.66
2023-05-06T16:37:07.809Z,101192.16
2023-05-06T16:39:34.342Z,101181.72
2023-05-06T16:42:01.128Z,101198.91
2023-05-06T16:44:29.161Z,101194.63
2023-05-06T16:46:56.021Z,101196.28
2023-05-06T16:49:22.630Z,101184.22
2023-05-06T16:51:49.126Z,101196.84
2023-05-06T16:54:15.664Z,101199.47
2023-05-06T16:56:51.497Z,101195.94
2023-05-06T16:59:21.398Z,101188.13
2023-05-06T17:01:48.629Z,101181.72
2023-05-06T17:04:16.016Z,101185.19
2023-05-06T17:06:42.567Z,101180.03
2023-05-06T17:09:09.033Z,101179.88
2023-05-06T17:11:35.486Z,101178.00
2023-05-06T17:14:02.081Z,101171.19
2023-05-06T17:16:28.613Z,101179.78
2023-05-06T17:18:55.102Z,101170.44
2023-05-06T17:21:21.615Z,101189.38
2023-05-06T17:23:48.166Z,101183.31
2023-05-06T17:26:17.673Z,101172.91
2023-05-06T17:28:44.154Z,101183.50
2023-05-06T17:31:10.734Z,101187.06
2023-05-06T17:33:37.351Z,101182.78
2023-05-06T17:36:03.985Z,101187.97
2023-05-06T17:38:30.626Z,101173.22
2023-05-06T17:40:57.101Z,101184.50
2023-05-06T17:43:23.556Z,101171.34
2023-05-06T17:45:50.057Z,101181.06
2023-05-06T17:48:16.631Z,101180.19
2023-05-06T17:50:43.096Z,101175.97
2023-05-06T17:53:09.624Z,101183.84
2023-05-06T17:55:36.328Z,101162.22
2023-05-06T17:58:03.181Z,101162.16
2023-05-06T18:00:29.714Z,101175.28
2023-05-06T18:02:56.294Z,101169.28
2023-05-06T18:05:24.600Z,101171.09
2023-05-06T18:07:51.587Z,101168.59
2023-05-06T18:10:21.302Z,101157.44
2023-05-06T18:12:48.069Z,101173.03
2023-05-06T18:15:14.810Z,101174.00
2023-05-06T18:17:41.384Z,101174.19
2023-05-06T18:20:08.707Z,101170.00
2023-05-06T18:22:35.234Z,101174.06
2023-05-06T18:25:01.856Z,101176.81
2023-05-06T18:27:29.608Z,101160.50
2023-05-06T18:29:56.167Z,101172.63
2023-05-06T18:32:22.714Z,101171.75
2023-05-06T18:34:49.310Z,101181.41
2023-05-06T18:37:15.785Z,101184.91
2023-05-06T18:39:45.571Z,101180.47
2023-05-06T18:42:12.093Z,101175.38
2023-05-06T18:44:38.720Z,101174.75
2023-05-06T18:47:05.511Z,101181.59
2023-05-06T18:49:32.093Z,101174.03
2023-05-06T18:51:58.821Z,101169.81
2023-05-06T18:54:25.449Z,101192.41
2023-05-06T18:56:52.154Z,101190.69
2023-05-06T18:59:19.837Z,101195.94
2023-05-06T19:01:46.532Z,101211.69
2023-05-06T19:04:13.254Z,101207.28
2023-05-06T19:06:39.870Z,101204.84
2023-05-06T19:09:09.695Z,101190.09
2023-05-06T19:11:36.515Z,101204.72
2023-05-06T19:14:03.158Z,101197.84
2023-05-06T19:16:29.777Z,101194.44
2023-05-06T19:18:56.341Z,101201.38
2023-05-06T19:21:23.111Z,101186.72
2023-05-06T19:23:49.840Z,101201.50
2023-05-06T19:26:16.390Z,101184.25
2023-05-06T19:28:42.893Z,101196.25
2023-05-06T19:31:10.804Z,101197.97
2023-05-06T19:33:38.246Z,101188.47
2023-05-06T19:36:05.419Z,101199.78
2023-05-06T19:38:31.931Z,101199.06
2023-05-06T19:40:58.500Z,101191.31
2023-05-06T19:43:25.218Z,101208.47
2023-05-06T19:45:51.792Z,101207.66
2023-05-06T19:48:19.590Z,101207.66
2023-05-06T19:50:46.183Z,101206.03
2023-05-06T19:53:12.741Z,101213.81
2023-05-06T19:55:39.211Z,101211.28
2023-05-06T19:58:05.791Z,101221.69
2023-05-06T20:00:32.691Z,101208.84
2023-05-06T20:03:00.489Z,101226.03
2023-05-06T20:05:31.397Z,101229.44
2023-05-06T20:08:01.238Z,101227.78
2023-05-06T20:10:28.720Z,101226.94
2023-05-06T20:12:57.369Z,101232.13
2023-05-06T20:15:24.495Z,101222.69
2023-05-06T20:17:51.094Z,101236.50
2023-05-06T20:20:17.643Z,101229.63
2023-05-06T20:22:44.112Z,101232.97
2023-05-06T20:25:14.372Z,101236.50
2023-05-06T20:27:40.836Z,101243.47
2023-05-06T20:30:09.518Z,101250.44
2023-05-06T20:32:37.402Z,101240.06
2023-05-06T20:35:04.786Z,101251.41
2023-05-06T20:37:31.677Z,101236.72
2023-05-06T20:39:58.270Z,101245.38
2023-05-06T20:42:24.973Z,101251.59
2023-05-06T20:44:51.860Z,101259.41
2023-05-06T20:47:19.017Z,101263.66
2023-05-06T20:49:46.015Z,101258.34
2023-05-06T20:52:14.604Z,101261.03
2023-05-06T20:54:42.630Z,101261.03
2023-05-06T20:57:10.322Z,101264.47
2023-05-06T20:59:36.890Z,101271.47
2023-05-06T21:02:03.948Z,101269.72
2023-05-06T21:04:31.392Z,101267.03
2023-05-06T21:06:58.308Z,101271.41
2023-05-06T21:09:27.506Z,101272.34
2023-05-06T21:12:00.894Z,101264.66
2023-05-06T21:14:27.614Z,101272.34
2023-05-06T21:16:54.272Z,101271.53
2023-05-06T21:19:21.003Z,101271.81
2023-05-06T21:21:47.594Z,101278.88
2023-05-06T21:24:14.278Z,101262.47
2023-05-06T21:26:40.930Z,101282.28
2023-05-06T21:29:07.495Z,101275.34
2023-05-06T21:31:34.318Z,101274.59
2023-05-06T21:34:01.228Z,101276.31
2023-05-06T21:36:27.762Z,101275.53
2023-05-06T21:39:09.521Z,101283.31
2023-05-06T21:41:36.700Z,101282.47
2023-05-06T21:44:04.786Z,101286.00
2023-05-06T21:46:32.210Z,101284.31
2023-05-06T21:48:59.529Z,101280.94
2023-05-06T21:51:32.306Z,101272.28
2023-05-06T21:53:59.166Z,101290.50
2023-05-06T21:56:25.852Z,101292.16
2023-05-06T21:58:54.720Z,101302.53
2023-05-06T22:01:22.259Z,101301.66
2023-05-06T22:03:48.895Z,101293.09
2023-05-06T22:06:15.872Z,101301.66
2023-05-06T22:08:42.677Z,101300.84
2023-05-06T22:11:09.211Z,101304.38
2023-05-06T22:13:36.177Z,101307.84
2023-05-06T22:16:02.992Z,101296.69
2023-05-06T22:18:29.948Z,101318.34
2023-05-06T22:20:57.788Z,101316.56
2023-05-06T22:23:25.057Z,101315.69
2023-05-06T22:25:52.126Z,101315.69
2023-05-06T22:28:19.333Z,101308.81
2023-05-06T22:30:45.984Z,101322.66
2023-05-06T22:33:12.624Z,101323.50
2023-05-06T22:35:39.126Z,101323.56
2023-05-06T22:38:05.651Z,101327.91
2023-05-06T22:40:32.127Z,101313.06
2023-05-06T22:42:58.634Z,101321.81
2023-05-06T22:45:25.121Z,101319.19
2023-05-06T22:47:51.676Z,101321.94
2023-05-06T22:50:18.358Z,101312.72
2023-05-06T22:52:44.848Z,101324.78
2023-05-06T22:55:11.697Z,101326.63
2023-05-06T22:57:38.668Z,101331.97
2023-05-06T23:00:07.096Z,101328.63
2023-05-06T23:02:33.640Z,101333.97
2023-05-06T23:05:00.871Z,101327.91
2023-05-06T23:07:27.365Z,101334.13
2023-05-06T23:09:54.207Z,101325.50
2023-05-06T23:12:20.717Z,101342.88
2023-05-06T23:14:47.238Z,101349.00
2023-05-06T23:17:13.841Z,101335.03
2023-05-06T23:19:40.405Z,101343.81
2023-05-06T23:22:06.841Z,101337.72
2023-05-06T23:24:33.328Z,101338.56
2023-05-06T23:26:59.857Z,101334.28
2023-05-06T23:29:26.309Z,101335.16
2023-05-06T23:31:52.791Z,101332.56
2023-05-06T23:34:19.414Z,101329.22
2023-05-06T23:36:45.911Z,101330.94
2023-05-06T23:39:12.510Z,101335.50
2023-05-06T23:41:39.045Z,101342.38
2023-05-06T23:44:06.222Z,101343.28
2023-05-06T23:46:33.075Z,101348.53
2023-05-06T23:48:59.794Z,101340.78
2023-05-06T23:51:26.574Z,101345.22
2023-05-06T23:53:53.321Z,101339.13
2023-05-06T23:56:21.641Z,101336.50
2023-05-06T23:58:48.291Z,101336.50
